createdAt,value
2019-04-04T06:27:33.219Z,7.32
2019-04-04T06:28:33.230Z,7.34
2019-04-04T06:29:33.245Z,7.31
2019-04-04T06:30:43.238Z,7.35
2019-04-04T06:31:33.272Z,7.31
2019-04-04T06:32:33.280Z,7.42
2019-04-04T06:33:35.248Z,7.42
2019-04-04T06:34:33.813Z,7.49
2019-04-04T06:35:33.313Z,7.43
2019-04-04T06:36:33.322Z,7.49
2019-04-04T06:37:34.451Z,7.55
2019-04-04T06:39:33.366Z,7.53
2019-04-04T06:40:35.230Z,7.50
2019-04-04T06:41:34.708Z,7.63
2019-04-04T06:42:36.067Z,7.64
2019-04-04T06:43:33.411Z,7.67
2019-04-04T06:44:33.430Z,7.71
2019-04-04T06:45:33.872Z,7.80
2019-04-04T06:46:33.469Z,7.71
2019-04-04T06:47:33.625Z,7.80
2019-04-04T06:48:33.983Z,7.82
2019-04-04T06:49:35.505Z,7.82
2019-04-04T06:50:33.491Z,7.82
2019-04-04T06:51:33.619Z,7.74
2019-04-04T06:52:33.529Z,7.61
2019-04-04T06:53:33.531Z,7.58
2019-04-04T06:54:33.540Z,7.50
2019-04-04T06:55:37.377Z,7.46
2019-04-04T06:56:34.042Z,7.49
2019-04-04T06:57:36.156Z,7.27
2019-04-04T06:58:33.599Z,7.32
2019-04-04T06:59:33.988Z,7.30
2019-04-04T07:00:33.612Z,7.27
2019-04-04T07:01:35.138Z,7.30
2019-04-04T07:02:33.659Z,7.31
2019-04-04T07:03:33.699Z,7.30
2019-04-04T07:04:36.089Z,7.25
2019-04-04T07:05:33.672Z,7.25
2019-04-04T07:06:33.683Z,7.31
2019-04-04T07:07:33.726Z,7.28
2019-04-04T07:08:33.708Z,7.28
2019-04-04T07:09:33.721Z,7.34
2019-04-04T07:10:33.740Z,7.43
2019-04-04T07:11:35.105Z,7.52
2019-04-04T07:12:33.759Z,7.49
2019-04-04T07:13:42.441Z,7.60
2019-04-04T07:14:45.201Z,7.61
2019-04-04T07:15:45.868Z,7.68
2019-04-04T07:16:34.205Z,7.74
2019-04-04T07:17:33.819Z,7.85
2019-04-04T07:18:33.853Z,7.79
2019-04-04T07:19:33.843Z,7.90
2019-04-04T07:20:33.862Z,7.87
2019-04-04T07:21:33.876Z,8.00
2019-04-04T07:22:33.878Z,7.89
2019-04-04T07:23:33.903Z,7.98
2019-04-04T07:24:34.073Z,8.00
2019-04-04T07:25:35.835Z,7.93
2019-04-04T07:26:33.927Z,7.89
2019-04-04T07:27:33.955Z,7.89
2019-04-04T07:28:36.544Z,7.87
2019-04-04T07:29:36.432Z,7.85
2019-04-04T07:30:35.463Z,7.85
2019-04-04T07:31:38.315Z,7.83
2019-04-04T07:32:35.222Z,7.90
2019-04-04T07:33:34.014Z,7.93
2019-04-04T07:34:34.041Z,7.93
2019-04-04T07:35:34.051Z,7.98
2019-04-04T07:36:34.059Z,7.97
2019-04-04T07:37:34.083Z,7.97
2019-04-04T07:38:35.095Z,7.89
2019-04-04T07:39:34.187Z,7.92
2019-04-04T07:40:36.319Z,7.93
2019-04-04T07:41:34.111Z,8.01
2019-04-04T07:42:34.117Z,8.02
2019-04-04T07:43:34.494Z,7.97
2019-04-04T07:44:34.921Z,7.98
2019-04-04T07:45:34.176Z,7.97
2019-04-04T07:46:34.820Z,7.98
2019-04-04T07:47:34.518Z,7.98
2019-04-04T07:48:34.282Z,7.98
2019-04-04T07:49:34.219Z,8.00
2019-04-04T07:50:35.208Z,7.98
2019-04-04T07:51:36.590Z,7.95
2019-04-04T07:52:36.795Z,7.89
2019-04-04T07:54:37.995Z,7.83
2019-04-04T07:57:35.186Z,7.87
2019-04-04T07:59:34.502Z,8.00
2019-04-04T08:00:34.370Z,7.98
2019-04-04T08:01:35.034Z,7.90
2019-04-04T08:03:34.419Z,7.93
2019-04-04T08:04:34.686Z,8.01
2019-04-04T08:05:34.598Z,7.97
2019-04-04T08:06:34.436Z,8.04
2019-04-04T08:07:34.498Z,8.05
2019-04-04T08:08:34.849Z,8.08
2019-04-04T08:09:34.460Z,8.00
2019-04-04T08:10:34.476Z,8.05
2019-04-04T08:12:34.635Z,8.00
2019-04-04T08:13:34.511Z,7.98
2019-04-04T08:14:34.529Z,7.95
2019-04-04T08:16:35.875Z,7.97
2019-04-04T08:17:34.546Z,7.95
2019-04-04T08:18:34.559Z,7.80
2019-04-04T08:19:34.595Z,7.83
2019-04-04T08:20:35.669Z,7.86
2019-04-04T08:21:36.204Z,7.85
2019-04-04T08:22:34.883Z,7.92
2019-04-04T08:24:34.661Z,7.98
2019-04-04T08:25:34.737Z,7.90
2019-04-04T08:26:34.789Z,7.98
2019-04-04T08:28:34.817Z,7.86
2019-04-04T08:29:34.760Z,7.92
2019-04-04T08:30:35.295Z,7.87
2019-04-04T08:31:34.747Z,7.98
2019-04-04T08:32:34.730Z,7.93
2019-04-04T08:33:34.877Z,8.00
2019-04-04T08:34:36.397Z,7.93
2019-04-04T08:35:34.794Z,7.97
2019-04-04T08:36:37.912Z,7.95
2019-04-04T08:37:34.828Z,7.95
2019-04-04T08:38:35.291Z,7.89
2019-04-04T08:39:35.391Z,8.00
2019-04-04T08:40:34.846Z,7.98
2019-04-04T08:41:35.079Z,7.98
2019-04-04T08:42:34.868Z,7.97
2019-04-04T08:43:34.890Z,8.10
2019-04-04T08:44:35.293Z,8.07
2019-04-04T08:45:34.893Z,8.08
2019-04-04T08:47:36.033Z,8.04
2019-04-04T08:48:35.638Z,7.90
2019-04-04T08:49:34.938Z,7.98
2019-04-04T08:51:34.960Z,7.98
2019-04-04T08:52:34.969Z,8.00
2019-04-04T08:53:40.159Z,8.08
2019-04-04T08:54:35.087Z,8.01
2019-04-04T08:55:35.049Z,8.00
2019-04-04T08:56:35.329Z,8.02
2019-04-04T08:57:35.047Z,8.18
2019-04-04T08:58:35.066Z,8.22
2019-04-04T09:00:35.082Z,8.22
2019-04-04T09:01:35.121Z,8.22
2019-04-04T09:02:35.284Z,8.25
2019-04-04T09:03:35.113Z,8.19
2019-04-04T09:04:35.371Z,8.25
2019-04-04T09:05:35.231Z,8.19
2019-04-04T09:06:35.140Z,8.22
2019-04-04T09:07:35.884Z,8.25
2019-04-04T09:08:35.513Z,8.23
2019-04-04T09:09:35.260Z,8.18
2019-04-04T09:10:35.204Z,8.05
2019-04-04T09:11:35.288Z,8.08
2019-04-04T09:12:35.421Z,8.04
2019-04-04T09:13:35.239Z,8.02
2019-04-04T09:14:35.249Z,8.10
2019-04-04T09:15:35.266Z,8.19
2019-04-04T09:16:35.263Z,8.19
2019-04-04T09:17:35.283Z,8.22
2019-04-04T09:18:35.338Z,8.16
2019-04-04T09:19:35.308Z,7.97
2019-04-04T09:20:35.343Z,8.02
2019-04-04T09:21:35.387Z,8.05
2019-04-04T09:22:35.354Z,7.95
2019-04-04T09:23:35.629Z,8.02
2019-04-04T09:24:36.109Z,8.02
2019-04-04T09:25:35.682Z,8.18
2019-04-04T09:26:35.389Z,8.16
2019-04-04T09:27:35.691Z,8.33
2019-04-04T09:28:35.434Z,8.34
2019-04-04T09:29:35.498Z,8.29
2019-04-04T09:30:35.459Z,8.30
2019-04-04T09:31:35.470Z,8.36
2019-04-04T09:32:35.482Z,8.34
2019-04-04T09:33:35.530Z,8.37
2019-04-04T09:34:35.504Z,8.33
2019-04-04T09:35:35.521Z,8.29
2019-04-04T09:36:35.539Z,8.34
2019-04-04T09:37:35.549Z,8.36
2019-04-04T09:38:35.547Z,8.36
2019-04-04T09:39:35.560Z,8.29
2019-04-04T09:40:35.572Z,8.36
2019-04-04T09:41:35.587Z,8.47
2019-04-04T09:42:35.594Z,8.56
2019-04-04T09:43:35.603Z,8.50
2019-04-04T09:44:35.619Z,8.73
2019-04-04T09:45:35.637Z,8.76
2019-04-04T09:46:35.641Z,8.68
2019-04-04T09:47:35.818Z,8.73
2019-04-04T09:48:35.799Z,8.70
2019-04-04T09:49:35.855Z,8.76
2019-04-04T09:50:35.699Z,8.80
2019-04-04T09:51:35.708Z,8.80
2019-04-04T09:52:35.722Z,8.81
2019-04-04T09:54:36.047Z,8.71
2019-04-04T09:55:35.767Z,8.74
2019-04-04T09:56:35.789Z,8.71
2019-04-04T09:57:35.784Z,8.65
2019-04-04T09:58:35.813Z,8.80
2019-04-04T09:59:35.811Z,8.74
2019-04-04T10:00:35.825Z,8.79
2019-04-04T10:01:35.849Z,8.77
2019-04-04T10:02:35.848Z,8.86
2019-04-04T10:03:35.867Z,9.02
2019-04-04T10:04:35.887Z,9.04
2019-04-04T10:05:35.890Z,9.02
2019-04-04T10:06:35.903Z,8.96
2019-04-04T10:07:35.922Z,8.96
2019-04-04T10:08:38.677Z,8.89
2019-04-04T10:09:35.967Z,8.80
2019-04-04T10:10:35.959Z,8.83
2019-04-04T10:11:35.997Z,8.81
2019-04-04T10:12:36.008Z,8.66
2019-04-04T10:13:36.004Z,8.74
2019-04-04T10:14:36.010Z,8.80
2019-04-04T10:15:36.019Z,8.99
2019-04-04T10:16:36.048Z,8.95
2019-04-04T10:17:36.095Z,8.83
2019-04-04T10:18:36.184Z,8.84
2019-04-04T10:19:36.084Z,8.92
2019-04-04T10:20:36.095Z,8.84
2019-04-04T10:21:36.104Z,8.87
2019-04-04T10:22:36.123Z,8.92
2019-04-04T10:23:36.509Z,8.83
2019-04-04T10:24:36.166Z,8.86
2019-04-04T10:25:36.150Z,8.73
2019-04-04T10:27:36.321Z,8.66
2019-04-04T10:28:36.213Z,8.62
2019-04-04T10:29:36.216Z,8.80
2019-04-04T10:30:36.239Z,8.81
2019-04-04T10:31:36.252Z,8.79
2019-04-04T10:32:36.262Z,8.74
2019-04-04T10:33:36.265Z,8.71
2019-04-04T10:34:36.302Z,8.70
2019-04-04T10:35:36.321Z,8.63
2019-04-04T10:36:36.305Z,8.71
2019-04-04T10:37:36.342Z,8.81
2019-04-04T10:38:36.330Z,8.81
2019-04-04T10:39:36.489Z,8.83
2019-04-04T10:40:36.342Z,8.79
2019-04-04T10:41:36.365Z,8.73
2019-04-04T10:42:36.372Z,8.73
2019-04-04T10:43:36.377Z,8.79
2019-04-04T10:44:37.181Z,8.74
2019-04-04T10:45:36.427Z,8.63
2019-04-04T10:46:36.417Z,8.70
2019-04-04T10:47:36.426Z,8.66
2019-04-04T10:48:36.443Z,8.66
2019-04-04T10:49:36.461Z,8.71
2019-04-04T10:50:36.481Z,8.68
2019-04-04T10:51:36.483Z,8.63
2019-04-04T10:52:36.495Z,8.63
2019-04-04T10:53:36.512Z,8.63
2019-04-04T10:54:36.530Z,8.61
2019-04-04T10:55:36.583Z,8.73
2019-04-04T10:56:36.547Z,8.70
2019-04-04T10:57:36.560Z,8.71
2019-04-04T10:58:36.570Z,8.70
2019-04-04T10:59:36.603Z,8.62
2019-04-04T11:00:36.598Z,8.77
2019-04-04T11:01:36.606Z,8.80
2019-04-04T11:02:36.628Z,8.92
2019-04-04T11:03:36.698Z,8.89
2019-04-04T11:04:36.649Z,8.87
2019-04-04T11:05:36.660Z,8.84
2019-04-04T11:06:36.682Z,8.81
2019-04-04T11:07:36.723Z,8.96
2019-04-04T11:08:36.701Z,8.95
2019-04-04T11:09:42.132Z,9.04
2019-04-04T11:10:36.729Z,9.08
2019-04-04T11:11:36.739Z,9.10
2019-04-04T11:12:36.753Z,8.96
2019-04-04T11:13:36.775Z,9.04
2019-04-04T11:14:36.781Z,8.96
2019-04-04T11:15:36.791Z,8.91
2019-04-04T11:16:36.805Z,8.98
2019-04-04T11:17:36.819Z,9.01
2019-04-04T11:18:36.839Z,9.10
2019-04-04T11:19:36.840Z,9.11
2019-04-04T11:20:36.856Z,9.24
2019-04-04T11:21:36.898Z,9.40
2019-04-04T11:22:36.883Z,9.40
2019-04-04T11:23:36.907Z,9.43
2019-04-04T11:24:36.942Z,9.58
2019-04-04T11:25:36.926Z,9.47
2019-04-04T11:26:36.945Z,9.50
2019-04-04T11:27:36.950Z,9.53
2019-04-04T11:28:36.959Z,9.50
2019-04-04T11:29:36.976Z,9.38
2019-04-04T11:31:37.004Z,9.32
2019-04-04T11:32:37.874Z,9.35
2019-04-04T11:33:37.031Z,9.38
2019-04-04T11:34:37.062Z,9.20
2019-04-04T11:35:37.062Z,9.10
2019-04-04T11:36:37.085Z,9.01
2019-04-04T11:37:37.088Z,8.71
2019-04-04T11:38:37.093Z,8.65
2019-04-04T11:39:37.118Z,8.58
2019-04-04T11:40:37.118Z,8.68
2019-04-04T11:41:37.141Z,8.58
2019-04-04T11:42:37.141Z,8.70
2019-04-04T11:43:37.169Z,8.68
2019-04-04T11:44:37.167Z,8.86
2019-04-04T11:45:38.158Z,8.89
2019-04-04T11:46:37.295Z,8.86
2019-04-04T11:47:37.225Z,8.81
2019-04-04T11:48:37.229Z,8.87
2019-04-04T11:49:37.234Z,9.01
2019-04-04T11:50:39.623Z,8.77
2019-04-04T11:51:37.431Z,8.79
2019-04-04T11:52:37.277Z,8.77
2019-04-04T11:53:37.292Z,8.77
2019-04-04T11:54:37.302Z,8.84
2019-04-04T11:55:37.329Z,8.77
2019-04-04T11:56:37.345Z,8.80
2019-04-04T11:57:37.349Z,8.87
2019-04-04T11:58:37.452Z,8.86
2019-04-04T11:59:37.398Z,8.91
2019-04-04T12:00:37.397Z,8.86
2019-04-04T12:01:37.393Z,8.92
2019-04-04T12:02:37.421Z,8.94
2019-04-04T12:03:37.432Z,8.83
2019-04-04T12:04:37.463Z,8.84
2019-04-04T12:05:37.450Z,8.80
2019-04-04T12:06:37.461Z,8.80
2019-04-04T12:07:38.478Z,8.80
2019-04-04T12:08:37.477Z,8.68
2019-04-04T12:09:37.504Z,8.80
2019-04-04T12:10:37.505Z,8.63
2019-04-04T12:11:37.711Z,8.81
2019-04-04T12:12:38.022Z,8.76
2019-04-04T12:13:37.689Z,8.77
2019-04-04T12:14:37.749Z,8.68
2019-04-04T12:15:37.574Z,8.79
2019-04-04T12:16:37.773Z,8.77
2019-04-04T12:17:37.597Z,8.83
2019-04-04T12:18:37.606Z,8.79
2019-04-04T12:20:37.644Z,8.73
2019-04-04T12:21:37.653Z,8.76
2019-04-04T12:22:37.661Z,8.74
2019-04-04T12:23:37.679Z,8.63
2019-04-04T12:24:37.684Z,8.68
2019-04-04T12:25:37.710Z,8.79
2019-04-04T12:26:38.299Z,8.81
2019-04-04T12:27:37.743Z,8.81
2019-04-04T12:28:37.741Z,8.84
2019-04-04T12:29:37.775Z,8.87
2019-04-04T12:30:37.794Z,9.01
2019-04-04T12:31:37.790Z,9.02
2019-04-04T12:32:37.793Z,8.99
2019-04-04T12:33:37.800Z,8.89
2019-04-04T12:34:37.812Z,8.80
2019-04-04T12:35:37.826Z,8.87
2019-04-04T12:36:37.844Z,8.91
2019-04-04T12:37:37.857Z,8.87
2019-04-04T12:38:37.873Z,8.74
2019-04-04T12:39:37.887Z,8.84
2019-04-04T12:40:37.939Z,8.94
2019-04-04T12:41:37.904Z,8.92
2019-04-04T12:42:37.917Z,8.84
2019-04-04T12:43:37.934Z,8.87
2019-04-04T12:44:37.944Z,8.81
2019-04-04T12:45:37.967Z,8.95
2019-04-04T12:46:37.974Z,9.05
2019-04-04T12:47:37.983Z,9.13
2019-04-04T12:48:38.017Z,9.08
2019-04-04T12:49:38.008Z,9.10
2019-04-04T12:50:38.023Z,9.04
2019-04-04T12:51:38.037Z,9.01
2019-04-04T12:52:38.050Z,9.02
2019-04-04T12:53:38.063Z,8.87
2019-04-04T12:54:38.080Z,8.80
2019-04-04T12:55:38.091Z,8.80
2019-04-04T12:56:38.105Z,8.77
2019-04-04T12:57:38.120Z,8.84
2019-04-04T12:58:38.123Z,8.94
2019-04-04T12:59:38.136Z,8.92
2019-04-04T13:00:38.152Z,9.10
2019-04-04T13:01:38.168Z,9.05
2019-04-04T13:02:38.185Z,9.08
2019-04-04T13:03:38.189Z,9.05
2019-04-04T13:04:38.199Z,9.11
2019-04-04T13:05:38.222Z,9.20
2019-04-04T13:06:38.245Z,9.15
2019-04-04T13:07:38.241Z,9.13
2019-04-04T13:08:38.289Z,9.05
2019-04-04T13:09:38.274Z,9.10
2019-04-04T13:10:38.285Z,9.18
2019-04-04T13:11:38.302Z,9.15
2019-04-04T13:12:38.303Z,8.89
2019-04-04T13:13:38.515Z,8.79
2019-04-04T13:14:38.335Z,8.61
2019-04-04T13:15:38.363Z,8.53
2019-04-04T13:16:38.360Z,8.62
2019-04-04T13:17:38.380Z,8.63
2019-04-04T13:18:38.400Z,8.66
2019-04-04T13:19:38.403Z,8.74
2019-04-04T13:20:39.127Z,8.68
2019-04-04T13:21:38.431Z,8.71
2019-04-04T13:22:38.440Z,8.66
2019-04-04T13:23:38.448Z,8.70
2019-04-04T13:24:38.486Z,8.66
2019-04-04T13:25:39.010Z,8.70
2019-04-04T13:26:38.506Z,8.74
2019-04-04T13:27:38.508Z,8.73
2019-04-04T13:28:38.535Z,8.63
2019-04-04T13:29:38.567Z,8.63
2019-04-04T13:30:38.549Z,8.73
2019-04-04T13:31:39.101Z,8.73
2019-04-04T13:32:38.665Z,8.62
2019-04-04T13:33:38.604Z,8.61
2019-04-04T13:34:38.597Z,8.71
2019-04-04T13:35:38.638Z,8.62
2019-04-04T13:36:38.614Z,8.53
2019-04-04T13:37:39.773Z,8.43
2019-04-04T13:38:38.643Z,8.38
2019-04-04T13:39:38.654Z,8.45
2019-04-04T13:40:45.176Z,8.52
2019-04-04T13:41:38.688Z,8.38
2019-04-04T13:42:38.720Z,8.47
2019-04-04T13:43:38.830Z,8.47
2019-04-04T13:44:38.731Z,8.48
2019-04-04T13:45:38.931Z,8.53
2019-04-04T13:46:38.801Z,8.61
2019-04-04T13:47:40.321Z,8.61
2019-04-04T13:48:38.768Z,8.59
2019-04-04T13:49:38.779Z,8.62
2019-04-04T13:50:39.785Z,8.52
2019-04-04T13:51:38.828Z,8.47
2019-04-04T13:52:38.828Z,8.45
2019-04-04T13:53:41.275Z,8.56
2019-04-04T13:54:38.891Z,8.61
2019-04-04T13:55:39.369Z,8.50
2019-04-04T13:56:38.886Z,8.52
2019-04-04T13:57:39.399Z,8.47
2019-04-04T13:58:38.944Z,8.34
2019-04-04T13:59:38.935Z,8.33
2019-04-04T14:00:38.923Z,8.22
2019-04-04T14:01:41.868Z,8.18
2019-04-04T14:02:38.972Z,8.30
2019-04-04T14:03:38.989Z,8.36
2019-04-04T14:04:38.977Z,8.26
2019-04-04T14:05:38.988Z,8.23
2019-04-04T14:06:38.996Z,8.28
2019-04-04T14:07:39.004Z,8.37
2019-04-04T14:08:39.578Z,8.45
2019-04-04T14:09:39.043Z,8.29
2019-04-04T14:10:39.084Z,8.26
2019-04-04T14:11:41.245Z,8.37
2019-04-04T14:12:39.072Z,8.36
2019-04-04T14:13:39.139Z,8.36
2019-04-04T14:14:39.097Z,8.34
2019-04-04T14:15:39.103Z,8.19
2019-04-04T14:16:39.121Z,8.05
2019-04-04T14:17:39.163Z,8.07
2019-04-04T14:18:40.273Z,8.12
2019-04-04T14:19:39.177Z,8.22
2019-04-04T14:20:39.189Z,8.25
2019-04-04T14:21:39.202Z,8.20
2019-04-04T14:22:39.203Z,8.12
2019-04-04T14:23:39.224Z,8.02
2019-04-04T14:24:39.226Z,8.02
2019-04-04T14:25:39.231Z,8.07
2019-04-04T14:26:39.633Z,8.05
2019-04-04T14:27:39.267Z,8.05
2019-04-04T14:28:39.265Z,8.16
2019-04-04T14:29:39.278Z,8.23
2019-04-04T14:30:39.296Z,8.25
2019-04-04T14:31:39.312Z,8.30
2019-04-04T14:32:39.315Z,8.30
2019-04-04T14:33:39.348Z,8.33
2019-04-04T14:34:39.351Z,8.30
2019-04-04T14:35:39.367Z,8.18
2019-04-04T14:36:39.379Z,8.26
2019-04-04T14:37:39.387Z,8.22
2019-04-04T14:38:39.403Z,8.11
2019-04-04T14:39:39.415Z,8.10
2019-04-04T14:40:40.055Z,8.05
2019-04-04T14:41:39.988Z,8.22
2019-04-04T14:42:39.855Z,8.11
2019-04-04T14:43:39.451Z,8.00
2019-04-04T14:44:39.480Z,8.10
2019-04-04T14:45:40.606Z,8.02
2019-04-04T14:46:39.985Z,8.04
2019-04-04T14:47:39.532Z,8.07
2019-04-04T14:48:42.037Z,8.04
2019-04-04T14:49:39.525Z,8.12
2019-04-04T14:50:39.565Z,8.11
2019-04-04T14:51:39.553Z,8.15
2019-04-04T14:52:39.870Z,8.12
2019-04-04T14:53:39.589Z,8.22
2019-04-04T14:54:39.619Z,8.26
2019-04-04T14:55:39.594Z,8.36
2019-04-04T14:56:39.618Z,8.36
2019-04-04T14:57:39.634Z,8.34
2019-04-04T14:58:39.635Z,8.30
2019-04-04T14:59:39.657Z,8.30
2019-04-04T15:00:39.683Z,8.34
2019-04-04T15:01:39.673Z,8.18
2019-04-04T15:02:39.686Z,8.19
2019-04-04T15:03:42.055Z,8.23
2019-04-04T15:04:39.719Z,8.25
2019-04-04T15:05:39.728Z,8.28
2019-04-04T15:06:39.735Z,8.30
2019-04-04T15:07:39.762Z,8.30
2019-04-04T15:08:39.761Z,8.30
2019-04-04T15:09:39.794Z,8.20
2019-04-04T15:10:39.804Z,8.28
2019-04-04T15:11:39.799Z,8.15
2019-04-04T15:12:39.808Z,8.19
2019-04-04T15:13:39.822Z,8.22
2019-04-04T15:14:39.834Z,8.26
2019-04-04T15:15:39.854Z,8.19
2019-04-04T15:16:39.862Z,8.20
2019-04-04T15:17:39.872Z,8.23
2019-04-04T15:18:39.885Z,8.28
2019-04-04T15:19:39.897Z,8.28
2019-04-04T15:20:39.907Z,8.30
2019-04-04T15:21:39.922Z,8.25
2019-04-04T15:22:39.930Z,8.26
2019-04-04T15:23:39.963Z,8.30
2019-04-04T15:24:39.954Z,8.38
2019-04-04T15:25:39.989Z,8.34
2019-04-04T15:26:40.036Z,8.36
2019-04-04T15:27:40.016Z,8.45
2019-04-04T15:28:40.035Z,8.37
2019-04-04T15:29:40.026Z,8.45
2019-04-04T15:30:40.042Z,8.47
2019-04-04T15:31:40.047Z,8.34
2019-04-04T15:32:40.060Z,8.26
2019-04-04T15:33:40.086Z,8.18
2019-04-04T15:34:40.081Z,8.18
2019-04-04T15:35:40.143Z,8.25
2019-04-04T15:36:40.329Z,8.33
2019-04-04T15:37:40.121Z,8.28
2019-04-04T15:38:40.179Z,8.12
2019-04-04T15:39:40.150Z,8.22
2019-04-04T15:40:40.155Z,8.18
2019-04-04T15:41:40.228Z,8.12
2019-04-04T15:42:40.553Z,8.08
2019-04-04T15:43:40.215Z,8.11
2019-04-04T15:44:40.208Z,8.11
2019-04-04T15:45:40.220Z,8.19
2019-04-04T15:46:40.240Z,8.22
2019-04-04T15:47:40.244Z,8.33
2019-04-04T15:48:40.260Z,8.12
2019-04-04T15:49:40.268Z,8.10
2019-04-04T15:50:40.289Z,8.05
2019-04-04T15:51:40.294Z,8.00
2019-04-04T15:52:40.311Z,8.00
2019-04-04T15:53:40.317Z,8.07
2019-04-04T15:54:40.328Z,8.02
2019-04-04T15:55:40.345Z,8.05
2019-04-04T15:56:40.484Z,7.92
2019-04-04T15:57:40.375Z,8.01
2019-04-04T15:58:40.397Z,8.04
2019-04-04T15:59:40.399Z,8.23
2019-04-04T16:00:40.403Z,8.11
2019-04-04T16:01:40.417Z,8.16
2019-04-04T16:02:40.429Z,8.11
2019-04-04T16:03:40.502Z,8.07
2019-04-04T16:05:40.476Z,8.15
2019-04-04T16:06:40.477Z,8.04
2019-04-04T16:07:40.551Z,8.07
2019-04-04T16:08:40.535Z,8.05
2019-04-04T16:09:40.657Z,8.02
2019-04-04T16:10:40.526Z,7.97
2019-04-04T16:11:49.472Z,8.05
2019-04-04T16:12:40.552Z,8.15
2019-04-04T16:13:40.565Z,8.07
2019-04-04T16:14:40.598Z,8.07
2019-04-04T16:15:40.586Z,8.00
2019-04-04T16:16:40.598Z,8.01
2019-04-04T16:17:40.663Z,8.04
2019-04-04T16:18:40.623Z,8.02
2019-04-04T16:19:40.636Z,8.02
2019-04-04T16:20:40.667Z,8.02
2019-04-04T16:21:40.670Z,8.00
2019-04-04T16:22:40.674Z,7.97
2019-04-04T16:23:40.687Z,7.95
2019-04-04T16:24:40.712Z,7.95
2019-04-04T16:25:40.714Z,7.98
2019-04-04T16:26:40.740Z,8.00
2019-04-04T16:27:40.736Z,7.97
2019-04-04T16:28:40.755Z,8.00
2019-04-04T16:29:40.783Z,8.04
2019-04-04T16:30:40.776Z,8.01
2019-04-04T16:31:40.784Z,8.07
2019-04-04T16:32:40.797Z,8.00
2019-04-04T16:33:40.808Z,7.82
2019-04-04T16:34:40.818Z,7.87
2019-04-04T16:35:40.842Z,7.85
2019-04-04T16:36:40.845Z,7.86
2019-04-04T16:37:40.854Z,7.79
2019-04-04T16:38:40.932Z,7.87
2019-04-04T16:39:41.511Z,7.89
2019-04-04T16:40:40.909Z,7.82
2019-04-04T16:41:40.947Z,7.79
2019-04-04T16:42:40.931Z,7.82
2019-04-04T16:43:40.942Z,7.85
2019-04-04T16:44:40.944Z,7.92
2019-04-04T16:45:40.967Z,7.86
2019-04-04T16:46:41.015Z,7.90
2019-04-04T16:47:41.001Z,7.86
2019-04-04T16:48:40.990Z,7.92
2019-04-04T16:49:41.008Z,7.97
2019-04-04T16:50:41.012Z,7.93
2019-04-04T16:51:41.026Z,7.87
2019-04-04T16:52:41.040Z,7.95
2019-04-04T16:53:41.055Z,7.97
2019-04-04T16:54:41.905Z,7.95
2019-04-04T16:55:41.099Z,7.97
2019-04-04T16:56:41.085Z,7.97
2019-04-04T16:57:43.273Z,8.04
2019-04-04T16:58:41.118Z,8.08
2019-04-04T16:59:41.137Z,8.15
2019-04-04T17:00:41.133Z,8.11
2019-04-04T17:01:41.438Z,8.05
2019-04-04T17:02:41.166Z,8.07
2019-04-04T17:03:41.174Z,8.01
2019-04-04T17:04:42.963Z,7.97
2019-04-04T17:05:41.196Z,8.02
2019-04-04T17:06:41.231Z,8.01
2019-04-04T17:07:41.220Z,7.93
2019-04-04T17:08:41.222Z,7.95
2019-04-04T17:09:41.268Z,8.05
2019-04-04T17:10:41.257Z,8.00
2019-04-04T17:11:41.262Z,8.02
2019-04-04T17:12:41.293Z,8.05
2019-04-04T17:14:41.296Z,8.00
2019-04-04T17:15:41.312Z,7.98
2019-04-04T17:16:41.323Z,7.90
2019-04-04T17:17:41.341Z,7.89
2019-04-04T17:18:41.349Z,7.86
2019-04-04T17:19:41.418Z,7.79
2019-04-04T17:20:41.665Z,7.86
2019-04-04T17:21:41.384Z,7.93
2019-04-04T17:22:41.429Z,7.90
2019-04-04T17:24:41.419Z,8.01
2019-04-04T17:25:41.453Z,8.00
2019-04-04T17:26:41.443Z,8.04
2019-04-04T17:27:41.467Z,8.04
2019-04-04T17:28:41.468Z,8.12
2019-04-04T17:29:41.853Z,8.02
2019-04-04T17:30:41.491Z,7.97
2019-04-04T17:31:41.579Z,8.07
2019-04-04T17:32:41.517Z,8.07
2019-04-04T17:33:41.534Z,8.01
2019-04-04T17:34:41.539Z,8.00
2019-04-04T17:35:41.909Z,8.00
2019-04-04T17:36:41.570Z,8.00
2019-04-04T17:37:41.578Z,8.02
2019-04-04T17:38:41.643Z,8.00
2019-04-04T17:39:41.648Z,7.97
2019-04-04T17:40:41.612Z,7.92
2019-04-04T17:41:41.625Z,7.85
2019-04-04T17:42:41.761Z,7.89
2019-04-04T17:43:41.687Z,7.83
2019-04-04T17:44:42.145Z,7.90
2019-04-04T17:45:41.679Z,7.97
2019-04-04T17:46:41.689Z,7.93
2019-04-04T17:47:41.986Z,7.97
2019-04-04T17:48:41.710Z,8.01
2019-04-04T17:49:42.053Z,7.98
2019-04-04T17:50:41.736Z,7.95
2019-04-04T17:51:42.153Z,7.97
2019-04-04T17:52:41.759Z,8.02
2019-04-04T17:53:42.290Z,7.97
2019-04-04T17:54:41.825Z,7.90
2019-04-04T17:55:41.834Z,7.80
2019-04-04T17:56:42.310Z,7.69
2019-04-04T17:57:42.019Z,7.82
2019-04-04T17:58:41.840Z,7.75
2019-04-04T17:59:41.900Z,7.82
2019-04-04T18:00:41.864Z,7.82
2019-04-04T18:01:41.867Z,7.82
2019-04-04T18:02:41.879Z,7.72
2019-04-04T18:03:41.892Z,7.83
2019-04-04T18:04:48.350Z,7.89
2019-04-04T18:05:41.919Z,7.83
2019-04-04T18:06:41.928Z,7.89
2019-04-04T18:07:41.945Z,7.89
2019-04-04T18:08:41.957Z,7.87
2019-04-04T18:09:41.980Z,7.90
2019-04-04T18:10:41.977Z,7.97
2019-04-04T18:11:41.992Z,7.92
2019-04-04T18:12:42.009Z,7.92
2019-04-04T18:13:42.020Z,8.00
2019-04-04T18:14:42.078Z,7.98
2019-04-04T18:15:42.164Z,7.95
2019-04-04T18:16:42.119Z,7.93
2019-04-04T18:17:42.066Z,7.89
2019-04-04T18:18:42.077Z,7.90
2019-04-04T18:19:42.094Z,7.92
2019-04-04T18:20:42.098Z,7.89
2019-04-04T18:21:42.113Z,7.89
2019-04-04T18:22:42.124Z,7.83
2019-04-04T18:23:42.135Z,7.90
2019-04-04T18:24:42.159Z,7.87
2019-04-04T18:25:42.169Z,7.85
2019-04-04T18:26:42.174Z,7.87
2019-04-04T18:27:42.795Z,7.82
2019-04-04T18:28:42.281Z,7.89
2019-04-04T18:29:42.208Z,7.90
2019-04-04T18:30:42.224Z,7.90
2019-04-04T18:31:42.233Z,7.93
2019-04-04T18:32:42.248Z,7.90
2019-04-04T18:33:42.437Z,7.93
2019-04-04T18:34:42.266Z,7.87
2019-04-04T18:35:42.287Z,7.89
2019-04-04T18:37:42.559Z,7.86
2019-04-04T18:38:42.507Z,7.83
2019-04-04T18:39:42.331Z,7.83
2019-04-04T18:40:42.340Z,7.87
2019-04-04T18:41:42.353Z,7.71
2019-04-04T18:42:52.490Z,7.58
2019-04-04T18:43:42.391Z,7.64
2019-04-04T18:44:42.391Z,7.61
2019-04-04T18:45:42.414Z,7.75
2019-04-04T18:46:42.434Z,7.74
2019-04-04T18:47:42.954Z,7.79
2019-04-04T18:48:42.439Z,7.71
2019-04-04T18:49:42.451Z,7.69
2019-04-04T18:50:42.773Z,7.60
2019-04-04T18:51:42.807Z,7.60
2019-04-04T18:52:42.559Z,7.69
2019-04-04T18:53:42.498Z,7.72
2019-04-04T18:54:42.512Z,7.77
2019-04-04T18:55:42.533Z,7.83
2019-04-04T18:56:42.538Z,7.83
2019-04-04T18:57:42.546Z,7.86
2019-04-04T18:58:42.576Z,7.86
2019-04-04T18:59:42.580Z,7.83
2019-04-04T19:00:42.593Z,7.85
2019-04-04T19:01:43.042Z,7.86
2019-04-04T19:02:42.606Z,7.77
2019-04-04T19:03:42.990Z,7.79
2019-04-04T19:04:42.661Z,7.83
2019-04-04T19:05:42.647Z,7.82
2019-04-04T19:06:42.658Z,7.86
2019-04-04T19:07:42.663Z,7.85
2019-04-04T19:08:42.680Z,7.90
2019-04-04T19:09:42.691Z,7.85
2019-04-04T19:10:42.730Z,7.86
2019-04-04T19:11:42.710Z,7.85
2019-04-04T19:12:42.722Z,8.00
2019-04-04T19:13:44.607Z,7.92
2019-04-04T19:14:42.753Z,7.90
2019-04-04T19:15:42.799Z,7.87
2019-04-04T19:16:42.887Z,7.87
2019-04-04T19:17:42.785Z,7.89
2019-04-04T19:18:43.211Z,7.89
2019-04-04T19:19:42.808Z,7.87
2019-04-04T19:20:42.823Z,7.90
2019-04-04T19:21:42.834Z,7.92
2019-04-04T19:22:42.849Z,7.85
2019-04-04T19:23:49.240Z,7.86
2019-04-04T19:24:42.869Z,7.80
2019-04-04T19:25:42.878Z,7.83
2019-04-04T19:26:42.905Z,7.75
2019-04-04T19:27:42.903Z,7.85
2019-04-04T19:28:42.925Z,7.80
2019-04-04T19:29:42.933Z,7.79
2019-04-04T19:30:42.949Z,7.86
2019-04-04T19:31:42.956Z,7.80
2019-04-04T19:32:42.966Z,7.86
2019-04-04T19:33:42.983Z,7.85
2019-04-04T19:34:43.769Z,7.75
2019-04-04T19:35:43.070Z,7.85
2019-04-04T19:36:43.013Z,7.83
2019-04-04T19:37:43.030Z,7.82
2019-04-04T19:38:43.085Z,7.87
2019-04-04T19:39:43.054Z,7.90
2019-04-04T19:40:43.067Z,7.85
2019-04-04T19:41:43.071Z,7.82
2019-04-04T19:42:43.084Z,7.90
2019-04-04T19:43:43.112Z,7.87
2019-04-04T19:44:52.688Z,7.89
2019-04-04T19:45:43.141Z,7.87
2019-04-04T19:46:43.134Z,7.87
2019-04-04T19:47:43.147Z,7.83
2019-04-04T19:48:43.159Z,7.79
2019-04-04T19:49:43.176Z,7.75
2019-04-04T19:50:43.223Z,7.87
2019-04-04T19:51:43.194Z,7.80
2019-04-04T19:52:43.208Z,7.89
2019-04-04T19:53:43.426Z,7.87
2019-04-04T19:54:43.250Z,7.67
2019-04-04T19:55:43.247Z,7.67
2019-04-04T19:56:43.516Z,7.64
2019-04-04T19:57:43.274Z,7.67
2019-04-04T19:58:43.285Z,7.69
2019-04-04T19:59:43.294Z,7.63
2019-04-04T20:00:43.938Z,7.67
2019-04-04T20:01:43.472Z,7.63
2019-04-04T20:02:44.108Z,7.58
2019-04-04T20:03:43.369Z,7.69
2019-04-04T20:04:43.351Z,7.72
2019-04-04T20:05:44.555Z,7.77
2019-04-04T20:06:43.384Z,7.71